Time;durP1;ratioP1;P1;durP2;ratioP2;P2;SDS_P1;SDS_P2;PMS_P1;PMS_P2;Temp;Humidity;BMP_temperature;BMP_pressure;BME280_temperature;BME280_humidity;BME280_pressure;Samples;Min_cycle;Max_cycle;Signal;HPM_P1;HPM_P2
2022/03/18 05:00:29;;;;;;;18.25;11.63;;;6.70;99.90;;;;;;5944239;22;92690;-81
2022/03/18 05:02:55;;;;;;;20.25;11.52;;;6.70;99.90;;;;;;4979280;28;89185;-81
2022/03/18 05:05:21;;;;;;;20.65;11.95;;;6.70;99.90;;;;;;4960859;28;92060;-81
2022/03/18 05:07:51;;;;;;;22.42;11.65;;;6.70;99.90;;;;;;4977967;28;91556;-81
2022/03/18 05:10:18;;;;;;;19.33;11.57;;;6.60;99.90;;;;;;4979085;28;89341;-82
2022/03/18 05:12:45;;;;;;;20.45;12.25;;;6.60;99.90;;;;;;4961151;28;89272;-81
2022/03/18 05:15:11;;;;;;;19.20;11.73;;;6.60;99.90;;;;;;4958616;28;90192;-80
2022/03/18 05:17:38;;;;;;;18.75;12.77;;;6.50;99.90;;;;;;4958147;28;89439;-81
2022/03/18 05:20:05;;;;;;;20.35;12.20;;;6.50;99.90;;;;;;4940420;28;92142;-80
2022/03/18 05:22:31;;;;;;;18.55;12.27;;;6.40;99.90;;;;;;4955448;28;90376;-81
2022/03/18 05:24:57;;;;;;;19.75;11.90;;;6.40;99.90;;;;;;4960499;28;93071;-82
2022/03/18 05:27:24;;;;;;;20.35;12.38;;;6.40;99.90;;;;;;4962094;28;90087;-82
2022/03/18 05:29:49;;;;;;;19.45;11.73;;;6.40;99.90;;;;;;4939912;28;93078;-79
2022/03/18 05:32:15;;;;;;;19.42;12.85;;;6.40;99.90;;;;;;4939895;28;89439;-77
2022/03/18 05:34:41;;;;;;;20.17;12.32;;;6.40;99.90;;;;;;4957462;28;89186;-78
2022/03/18 05:37:07;;;;;;;18.35;12.40;;;6.40;99.90;;;;;;4939683;28;91543;-77
2022/03/18 05:39:33;;;;;;;19.58;12.23;;;6.50;99.90;;;;;;4958105;28;90113;-78
2022/03/18 05:41:59;;;;;;;19.98;12.30;;;6.50;99.90;;;;;;4954328;28;89319;-77
2022/03/18 05:44:24;;;;;;;21.60;12.50;;;6.50;99.90;;;;;;4966810;28;89725;-78
2022/03/18 05:46:51;;;;;;;19.58;11.70;;;6.60;99.90;;;;;;4956559;28;91329;-78
2022/03/18 05:49:18;;;;;;;19.20;12.63;;;6.60;99.90;;;;;;4957382;28;91099;-78
2022/03/18 05:51:44;;;;;;;18.45;12.27;;;6.60;99.90;;;;;;4960570;28;89228;-77
2022/03/18 05:54:10;;;;;;;23.05;12.95;;;6.70;99.90;;;;;;4939628;28;92713;-76
2022/03/18 05:56:53;;;;;;;22.10;12.43;;;6.70;99.90;;;;;;4956915;28;91170;-76
2022/03/18 05:59:23;;;;;;;18.33;11.07;;;6.70;99.90;;;;;;4957581;28;90096;-79
2022/03/18 06:01:49;;;;;;;21.85;12.55;;;6.80;99.90;;;;;;4968757;28;89364;-75
2022/03/18 06:04:15;;;;;;;22.15;12.90;;;6.90;99.90;;;;;;4957235;28;89919;-76
2022/03/18 06:06:43;;;;;;;18.63;11.70;;;6.90;99.90;;;;;;4957177;28;90480;-73
2022/03/18 06:11:57;;;;;;;19.80;12.13;;;7.00;99.90;;;;;;4954384;28;90121;-74
2022/03/18 06:14:25;;;;;;;19.83;12.80;;;7.00;99.90;;;;;;4955301;28;89210;-75
2022/03/18 06:16:53;;;;;;;19.55;12.30;;;7.00;99.90;;;;;;4957764;28;89918;-75
2022/03/18 06:19:21;;;;;;;18.88;11.80;;;7.00;99.90;;;;;;4940870;28;92909;-76
2022/03/18 06:21:47;;;;;;;17.92;11.38;;;7.10;99.90;;;;;;4942481;28;89454;-75
2022/03/18 06:24:13;;;;;;;17.55;10.65;;;7.10;99.90;;;;;;4940506;28;92723;-75
2022/03/18 06:26:39;;;;;;;17.27;11.48;;;7.10;99.90;;;;;;4939456;28;91796;-75
2022/03/18 06:29:06;;;;;;;21.55;11.90;;;7.20;99.90;;;;;;4961009;28;89098;-76
2022/03/18 06:31:32;;;;;;;22.50;11.80;;;7.20;99.90;;;;;;4960758;28;89539;-76
2022/03/18 06:33:58;;;;;;;20.08;12.38;;;7.20;99.90;;;;;;4960420;28;89975;-77
2022/03/18 06:36:24;;;;;;;24.13;13.07;;;7.20;99.90;;;;;;4975495;28;90770;-78
2022/03/18 06:38:50;;;;;;;20.17;13.13;;;7.30;99.90;;;;;;4945327;28;92547;-77
2022/03/18 06:41:16;;;;;;;20.85;12.25;;;7.30;99.90;;;;;;4960219;28;89422;-76
2022/03/18 06:43:42;;;;;;;18.58;12.30;;;7.30;99.90;;;;;;4959441;28;89209;-76
2022/03/18 06:46:08;;;;;;;19.48;11.35;;;7.30;99.90;;;;;;4959281;28;89406;-76
2022/03/18 06:48:34;;;;;;;18.02;11.40;;;7.40;99.90;;;;;;4942790;28;91924;-76
2022/03/18 06:51:00;;;;;;;19.55;12.48;;;7.40;99.90;;;;;;4948364;28;89380;-76
2022/03/18 06:53:26;;;;;;;20.25;11.73;;;7.50;99.90;;;;;;4962077;28;91711;-77
2022/03/18 06:55:52;;;;;;;19.88;11.95;;;7.50;99.90;;;;;;4979048;28;90674;-77
2022/03/18 06:58:18;;;;;;;19.30;12.07;;;7.50;99.90;;;;;;4975245;28;89850;-76
2022/03/18 07:00:43;;;;;;;18.80;12.50;;;7.60;99.90;;;;;;4958339;28;90538;-76
2022/03/18 07:03:09;;;;;;;19.17;11.60;;;7.60;99.90;;;;;;4941911;28;92365;-76
2022/03/18 07:05:34;;;;;;;18.38;10.50;;;7.60;99.90;;;;;;4941626;28;91898;-77
2022/03/18 07:08:00;;;;;;;19.20;10.55;;;7.70;99.90;;;;;;4973096;28;90223;-77
2022/03/18 07:10:26;;;;;;;20.23;11.50;;;7.70;99.90;;;;;;4961132;28;89687;-76
2022/03/18 07:12:52;;;;;;;17.48;10.13;;;7.80;99.90;;;;;;4961559;28;90009;-76
2022/03/18 07:15:18;;;;;;;20.48;10.32;;;7.80;99.90;;;;;;4958934;28;90546;-77
2022/03/18 07:17:58;;;;;;;17.52;10.43;;;7.80;99.90;;;;;;4959052;28;89424;-78
2022/03/18 07:20:34;;;;;;;17.98;10.25;;;7.80;99.90;;;;;;4958834;28;89293;-76
2022/03/18 07:23:06;;;;;;;16.80;10.40;;;7.90;99.90;;;;;;4958910;28;90423;-78
2022/03/18 07:25:33;;;;;;;15.77;9.13;;;8.00;99.90;;;;;;4940413;28;93054;-76
2022/03/18 07:27:59;;;;;;;18.30;10.85;;;8.10;99.90;;;;;;4967689;28;90020;-77
2022/03/18 07:30:24;;;;;;;17.23;10.48;;;8.20;99.90;;;;;;4969384;28;89267;-79
2022/03/18 07:32:50;;;;;;;17.92;10.52;;;8.10;99.90;;;;;;4958369;28;89651;-76
2022/03/18 07:35:16;;;;;;;16.52;10.60;;;8.20;99.90;;;;;;4977632;28;89925;-77
2022/03/18 07:37:42;;;;;;;16.70;10.45;;;8.10;99.90;;;;;;4970343;28;89378;-77
2022/03/18 07:40:14;;;;;;;18.20;10.52;;;8.10;99.90;;;;;;4978463;28;89274;-77
2022/03/18 07:42:51;;;;;;;17.73;11.25;;;8.20;99.90;;;;;;4971049;28;89145;-77
2022/03/18 07:45:28;;;;;;;17.85;10.48;;;8.40;99.90;;;;;;4956552;28;90247;-77
2022/03/18 07:47:58;;;;;;;18.02;10.77;;;8.30;99.90;;;;;;4940416;28;91357;-77
2022/03/18 07:50:25;;;;;;;18.27;10.32;;;8.50;99.90;;;;;;4952645;28;90753;-77
2022/03/18 07:52:54;;;;;;;18.00;10.80;;;8.50;99.90;;;;;;4958281;28;89474;-77
2022/03/18 07:55:21;;;;;;;19.75;11.95;;;8.50;99.90;;;;;;4956368;28;90055;-80
2022/03/18 07:57:47;;;;;;;16.67;10.90;;;8.70;99.90;;;;;;4961128;28;89771;-78
2022/03/18 08:00:15;;;;;;;20.42;10.50;;;8.80;99.90;;;;;;4943302;28;89343;-78
2022/03/18 08:02:42;;;;;;;19.92;11.52;;;8.90;99.90;;;;;;4939872;28;91470;-76
2022/03/18 08:05:08;;;;;;;17.65;10.82;;;8.90;99.90;;;;;;4957994;28;89334;-79
2022/03/18 08:07:34;;;;;;;19.98;11.00;;;8.90;99.90;;;;;;4971569;28;89210;-77
2022/03/18 08:10:00;;;;;;;17.65;10.70;;;8.90;99.90;;;;;;4968789;28;89171;-78
2022/03/18 08:12:29;;;;;;;19.95;11.23;;;9.00;99.90;;;;;;4957725;28;90497;-77
2022/03/18 08:14:57;;;;;;;19.63;11.50;;;9.10;99.90;;;;;;4940165;28;93650;-77
2022/03/18 08:17:23;;;;;;;18.92;10.63;;;9.10;99.90;;;;;;4940046;28;92757;-77
2022/03/18 08:19:52;;;;;;;19.17;11.02;;;9.30;99.90;;;;;;4936856;28;89462;-80
2022/03/18 08:22:20;;;;;;;19.10;11.13;;;9.40;99.90;;;;;;4950466;28;91181;-78
2022/03/18 08:24:46;;;;;;;22.90;12.40;;;9.60;99.90;;;;;;4957962;28;89927;-77
2022/03/18 08:27:11;;;;;;;22.40;12.73;;;9.90;99.90;;;;;;4958695;28;90230;-77
2022/03/18 08:29:38;;;;;;;20.77;12.00;;;9.80;99.90;;;;;;4969026;28;89274;-77
2022/03/18 08:32:05;;;;;;;20.88;13.05;;;10.00;99.90;;;;;;4959901;28;89143;-79
2022/03/18 08:34:31;;;;;;;18.88;12.45;;;10.10;99.90;;;;;;4937352;28;92616;-77
2022/03/18 08:36:56;;;;;;;22.88;13.25;;;10.10;99.90;;;;;;4959053;28;90493;-81
2022/03/18 08:39:22;;;;;;;20.13;12.77;;;9.90;99.90;;;;;;4952005;28;90251;-79
2022/03/18 08:41:47;;;;;;;22.70;14.75;;;10.00;99.90;;;;;;4956317;28;89718;-77
2022/03/18 08:44:14;;;;;;;20.25;13.82;;;10.00;99.90;;;;;;4938904;28;92212;-77
2022/03/18 08:46:39;;;;;;;23.45;14.45;;;10.00;99.90;;;;;;4940276;28;91951;-77
2022/03/18 08:49:05;;;;;;;22.25;13.98;;;10.00;99.90;;;;;;4969608;28;90112;-77
2022/03/18 08:51:30;;;;;;;23.48;14.57;;;10.20;99.90;;;;;;4975421;28;89748;-77
2022/03/18 08:53:56;;;;;;;25.40;14.52;;;10.10;99.90;;;;;;4948294;28;93280;-76
2022/03/18 08:56:22;;;;;;;21.67;13.82;;;10.30;99.90;;;;;;4958735;28;91719;-74
2022/03/18 08:58:49;;;;;;;22.58;13.65;;;10.40;99.90;;;;;;4949292;28;89443;-76
2022/03/18 09:01:14;;;;;;;25.27;14.23;;;10.60;99.90;;;;;;4960898;28;89439;-78
2022/03/18 09:03:40;;;;;;;22.33;13.75;;;10.50;99.90;;;;;;4964622;28;90867;-79
2022/03/18 09:06:07;;;;;;;25.67;14.85;;;10.30;99.90;;;;;;4938916;28;92969;-78
2022/03/18 09:08:32;;;;;;;28.13;15.43;;;10.30;99.90;;;;;;4957712;28;89277;-79
2022/03/18 09:10:58;;;;;;;22.50;13.98;;;10.40;99.90;;;;;;4939744;28;92489;-77
2022/03/18 09:13:23;;;;;;;24.95;14.50;;;10.50;99.90;;;;;;4956226;28;90252;-79
2022/03/18 09:15:49;;;;;;;23.83;14.65;;;10.40;99.90;;;;;;4955882;28;89927;-79
2022/03/18 09:18:14;;;;;;;25.27;13.73;;;10.70;99.90;;;;;;4942696;28;89233;-77
2022/03/18 09:20:40;;;;;;;22.92;13.48;;;10.50;99.90;;;;;;4977240;28;90200;-76
2022/03/18 09:23:08;;;;;;;23.17;12.95;;;10.10;99.90;;;;;;4949895;28;92890;-77
2022/03/18 09:25:34;;;;;;;22.38;13.65;;;10.10;99.90;;;;;;4956887;28;90056;-77
2022/03/18 09:28:00;;;;;;;22.38;13.38;;;10.20;99.90;;;;;;4957166;28;90207;-79
2022/03/18 09:30:25;;;;;;;23.45;13.75;;;10.30;99.90;;;;;;4958834;28;92594;-76
2022/03/18 09:32:51;;;;;;;20.70;13.30;;;10.30;99.90;;;;;;4976181;28;90001;-76
2022/03/18 09:35:17;;;;;;;23.45;13.73;;;10.40;99.90;;;;;;4976651;28;89578;-76
2022/03/18 09:37:43;;;;;;;23.27;14.68;;;10.40;99.90;;;;;;4953264;28;89835;-77
2022/03/18 09:40:09;;;;;;;24.67;15.93;;;10.30;99.90;;;;;;4955997;28;91485;-76
2022/03/18 09:42:52;;;;;;;21.63;14.27;;;10.30;99.90;;;;;;4975979;28;90355;-76
2022/03/18 09:45:18;;;;;;;24.42;14.45;;;10.20;99.90;;;;;;4959038;28;93109;-76
2022/03/18 09:47:44;;;;;;;25.40;15.13;;;10.20;99.90;;;;;;4959473;28;89187;-76
2022/03/18 09:50:10;;;;;;;24.02;14.52;;;10.30;99.90;;;;;;4976074;28;90690;-80
2022/03/18 09:52:37;;;;;;;22.05;14.60;;;10.50;99.90;;;;;;4950013;28;96017;-77
2022/03/18 09:55:03;;;;;;;25.90;15.63;;;10.40;99.90;;;;;;4941603;28;92480;-76
2022/03/18 09:57:29;;;;;;;25.05;14.68;;;10.30;99.90;;;;;;4962357;28;89269;-76
2022/03/18 09:59:54;;;;;;;26.15;15.50;;;10.20;99.90;;;;;;4955617;28;89740;-78
2022/03/18 10:02:33;;;;;;;27.23;15.88;;;10.20;99.90;;;;;;4956262;28;90558;-76
2022/03/18 10:05:06;;;;;;;27.00;15.30;;;10.30;99.90;;;;;;4952309;28;89341;-76
2022/03/18 10:07:32;;;;;;;26.40;15.68;;;10.20;99.90;;;;;;4958310;28;89699;-78
2022/03/18 10:10:15;;;;;;;25.83;15.52;;;10.30;99.90;;;;;;4959692;28;90318;-77
2022/03/18 10:12:47;;;;;;;26.05;15.68;;;10.50;99.90;;;;;;4947463;28;91663;-76
2022/03/18 10:15:20;;;;;;;24.42;15.10;;;10.90;99.90;;;;;;4978543;28;89811;-80
2022/03/18 10:17:53;;;;;;;25.55;15.18;;;11.30;99.90;;;;;;4977628;28;90019;-76
2022/03/18 10:20:38;;;;;;;23.60;14.63;;;11.60;99.90;;;;;;4978716;28;89978;-76
2022/03/18 10:23:14;;;;;;;25.88;15.45;;;11.80;99.90;;;;;;4978527;28;90405;-76
2022/03/18 10:25:53;;;;;;;28.25;16.92;;;11.70;99.90;;;;;;4939265;28;90265;-75
2022/03/18 10:28:43;;;;;;;27.85;17.00;;;11.40;99.90;;;;;;4939625;28;89179;-76
2022/03/18 10:31:11;;;;;;;29.02;17.45;;;11.50;99.90;;;;;;4921547;28;93240;-76
2022/03/18 10:39:30;;;;;;;27.23;17.13;;;12.20;99.90;;;;;;4959972;28;89982;-76
2022/03/18 10:42:00;;;;;;;27.02;16.60;;;12.10;99.90;;;;;;4955645;28;92956;-77
2022/03/18 10:44:41;;;;;;;23.63;15.60;;;12.10;99.90;;;;;;4919702;28;94051;-77
2022/03/18 10:47:06;;;;;;;27.85;16.08;;;12.00;99.90;;;;;;4939561;28;89997;-79
2022/03/18 10:49:32;;;;;;;24.05;15.52;;;12.00;99.90;;;;;;4939212;28;89321;-80
2022/03/18 10:52:09;;;;;;;29.00;17.40;;;11.90;99.90;;;;;;4954399;28;90333;-78
2022/03/18 10:54:34;;;;;;;26.13;15.82;;;12.20;99.90;;;;;;4976612;28;90162;-79
2022/03/18 10:57:00;;;;;;;25.10;15.68;;;12.40;99.90;;;;;;4954601;28;93050;-78
2022/03/18 10:59:27;;;;;;;25.40;17.27;;;12.20;99.90;;;;;;4964305;28;89176;-80
2022/03/18 11:01:56;;;;;;;29.88;17.88;;;12.60;99.90;;;;;;4960323;28;89025;-79
2022/03/18 11:04:23;;;;;;;28.27;17.35;;;12.60;99.90;;;;;;4977807;28;90445;-79
2022/03/18 11:12:35;;;;;;;26.70;18.08;;;13.20;99.90;;;;;;4959354;22;90301;-78
2022/03/18 11:15:03;;;;;;;29.25;18.63;;;13.60;99.90;;;;;;4979321;28;90040;-78
2022/03/18 11:17:32;;;;;;;28.75;18.85;;;13.40;99.90;;;;;;4980672;28;89845;-78
2022/03/18 11:20:01;;;;;;;28.05;19.13;;;13.10;99.90;;;;;;4962076;28;89254;-78
2022/03/18 11:22:27;;;;;;;27.45;18.23;;;13.10;99.90;;;;;;4944893;28;91598;-77
2022/03/18 11:24:55;;;;;;;26.88;18.77;;;13.10;99.90;;;;;;4964584;28;89361;-78
2022/03/18 11:27:21;;;;;;;29.90;18.25;;;12.90;99.90;;;;;;4961087;28;90341;-78
2022/03/18 11:29:46;;;;;;;27.95;17.85;;;12.60;99.90;;;;;;4977567;28;89266;-78
2022/03/18 11:32:12;;;;;;;30.30;18.95;;;12.60;99.90;;;;;;4980124;28;89610;-78
2022/03/18 11:34:45;;;;;;;29.02;18.83;;;12.70;99.90;;;;;;4979372;28;90177;-78
2022/03/18 11:37:11;;;;;;;29.63;18.65;;;12.50;99.90;;;;;;4961460;28;94436;-77
2022/03/18 11:39:40;;;;;;;28.02;18.38;;;12.50;99.90;;;;;;4980366;28;89429;-78
2022/03/18 11:42:09;;;;;;;29.65;18.38;;;12.70;99.90;;;;;;4962678;28;92985;-78
2022/03/18 11:44:43;;;;;;;27.48;18.90;;;12.70;99.90;;;;;;4962007;28;91893;-78
2022/03/18 11:47:28;;;;;;;31.77;19.67;;;12.80;99.90;;;;;;4960801;28;91536;-78
2022/03/18 11:49:53;;;;;;;25.65;17.60;;;12.90;99.90;;;;;;4959720;28;89723;-76
2022/03/18 11:52:19;;;;;;;28.77;18.73;;;13.10;99.90;;;;;;4978243;28;90881;-76
2022/03/18 11:54:58;;;;;;;27.63;19.40;;;13.30;99.90;;;;;;4977777;28;90541;-76
2022/03/18 11:57:34;;;;;;;27.38;18.33;;;13.10;99.90;;;;;;4960148;28;93062;-76
2022/03/18 12:00:05;;;;;;;27.30;17.95;;;13.50;99.90;;;;;;4976540;28;90773;-76
2022/03/18 12:02:35;;;;;;;28.55;19.50;;;13.70;99.90;;;;;;4959931;28;91663;-76
2022/03/18 12:05:02;;;;;;;30.63;19.58;;;13.40;99.90;;;;;;4960599;28;93300;-79
2022/03/18 12:07:49;;;;;;;29.05;20.08;;;13.20;99.90;;;;;;4961053;28;91516;-78
2022/03/18 12:10:31;;;;;;;29.90;20.48;;;13.50;99.90;;;;;;4979509;28;89331;-78
2022/03/18 12:12:57;;;;;;;31.52;19.98;;;13.60;99.90;;;;;;4962364;28;91739;-78
2022/03/18 12:15:23;;;;;;;29.02;19.55;;;13.50;99.90;;;;;;4979150;28;89148;-79
2022/03/18 12:17:53;;;;;;;26.05;18.38;;;13.40;99.80;;;;;;4978842;28;90287;-79
2022/03/18 12:20:30;;;;;;;29.15;19.30;;;13.60;99.90;;;;;;4978848;28;90223;-79
2022/03/18 12:22:58;;;;;;;29.98;19.60;;;13.50;99.90;;;;;;4961202;28;91273;-79
2022/03/18 12:25:24;;;;;;;27.35;19.40;;;13.40;99.90;;;;;;4961479;28;93021;-79
2022/03/18 12:27:51;;;;;;;29.38;19.70;;;13.10;99.90;;;;;;4960189;28;92494;-79
2022/03/18 12:30:19;;;;;;;26.42;18.60;;;13.10;99.90;;;;;;4961570;28;89298;-79
2022/03/18 12:32:51;;;;;;;27.30;19.98;;;13.10;99.90;;;;;;4962741;28;92482;-79
2022/03/18 12:35:18;;;;;;;30.58;19.98;;;13.60;99.80;;;;;;4960655;28;92246;-79
2022/03/18 12:37:48;;;;;;;26.00;18.92;;;13.90;99.50;;;;;;4967652;28;92070;-79
2022/03/18 12:40:19;;;;;;;30.27;18.80;;;14.20;98.90;;;;;;4985278;28;89334;-79
2022/03/18 12:42:58;;;;;;;23.52;17.50;;;14.50;99.90;;;;;;4981681;28;91560;-78
2022/03/18 12:45:29;;;;;;;32.60;19.10;;;14.40;99.00;;;;;;4993550;28;91252;-80
2022/03/18 12:48:00;;;;;;;25.95;18.05;;;14.60;98.20;;;;;;4978897;28;90150;-78
2022/03/18 12:50:31;;;;;;;24.05;17.00;;;14.30;98.20;;;;;;4966410;28;90375;-79
2022/03/18 12:52:57;;;;;;;25.63;17.88;;;14.40;96.10;;;;;;4989766;28;89295;-79
2022/03/18 12:55:24;;;;;;;24.80;17.60;;;14.60;96.60;;;;;;4981980;28;89538;-80
2022/03/18 12:57:51;;;;;;;23.67;17.23;;;15.00;96.30;;;;;;4981413;28;89293;-79
2022/03/18 13:00:17;;;;;;;22.75;17.60;;;15.10;95.60;;;;;;4957819;28;89350;-79
2022/03/18 13:02:44;;;;;;;23.50;16.33;;;14.70;95.50;;;;;;4962533;28;91840;-79
2022/03/18 13:05:15;;;;;;;23.55;17.17;;;14.50;95.20;;;;;;4978167;28;89362;-79
2022/03/18 13:07:41;;;;;;;24.52;17.65;;;14.20;95.70;;;;;;4972337;28;89733;-80
2022/03/18 13:10:07;;;;;;;23.15;16.85;;;13.90;96.80;;;;;;4983144;28;91189;-79
2022/03/18 13:12:36;;;;;;;24.20;17.30;;;14.10;96.60;;;;;;4979391;28;90255;-79
2022/03/18 13:15:12;;;;;;;23.52;16.98;;;14.00;96.50;;;;;;4962946;28;92043;-78
2022/03/18 13:17:38;;;;;;;23.50;16.92;;;13.90;97.10;;;;;;4959073;28;93842;-79
2022/03/18 13:20:03;;;;;;;27.42;18.65;;;13.90;97.40;;;;;;4977388;28;89702;-78
2022/03/18 13:22:29;;;;;;;26.67;17.65;;;13.60;97.40;;;;;;4979653;28;90173;-81
2022/03/18 13:24:59;;;;;;;26.77;18.08;;;13.50;97.50;;;;;;4982484;28;90052;-78
2022/03/18 13:27:26;;;;;;;23.98;17.45;;;13.60;97.90;;;;;;4975004;28;89188;-79
2022/03/18 13:32:50;;;;;;;25.75;18.63;;;14.00;97.40;;;;;;4979746;28;89519;-80
2022/03/18 13:35:18;;;;;;;26.35;18.33;;;14.10;97.40;;;;;;4958782;28;92887;-80
2022/03/18 14:17:58;;;;;;;26.20;19.23;;;14.50;95.30;;;;;;5125344;27;88950;-81
2022/03/18 14:20:26;;;;;;;28.00;19.63;;;14.60;95.10;;;;;;5116862;27;89044;-81
2022/03/18 14:22:54;;;;;;;25.33;18.85;;;14.00;95.50;;;;;;5118187;27;88974;-82
2022/03/18 14:25:22;;;;;;;28.08;19.20;;;14.30;95.60;;;;;;5125343;27;92033;-79
2022/03/18 14:27:53;;;;;;;24.67;18.42;;;14.40;95.00;;;;;;5122640;27;90931;-80
2022/03/18 14:30:24;;;;;;;23.83;17.88;;;14.60;94.60;;;;;;5112899;27;89489;-79
2022/03/18 14:32:55;;;;;;;24.30;17.75;;;14.60;94.30;;;;;;5096051;27;88776;-79
2022/03/18 14:35:21;;;;;;;27.00;19.42;;;14.70;94.90;;;;;;5102551;27;89623;-81
2022/03/18 14:37:47;;;;;;;26.38;18.08;;;14.50;94.50;;;;;;5098259;27;92631;-79
2022/03/18 14:40:15;;;;;;;24.83;19.23;;;14.50;94.60;;;;;;5117583;27;89010;-81
2022/03/18 14:42:42;;;;;;;24.00;18.35;;;14.50;94.50;;;;;;5113706;27;89237;-80
2022/03/18 14:45:09;;;;;;;25.27;18.52;;;14.60;94.20;;;;;;5116734;27;91547;-81
2022/03/18 14:47:34;;;;;;;24.27;19.05;;;14.60;94.60;;;;;;5122188;27;91104;-80
2022/03/18 14:50:00;;;;;;;25.77;19.35;;;14.40;94.10;;;;;;5109223;27;89031;-80
2022/03/18 14:52:26;;;;;;;26.00;19.13;;;14.10;95.10;;;;;;5116867;27;89390;-79
2022/03/18 14:57:35;;;;;;;27.13;19.70;;;14.30;95.40;;;;;;5116483;27;89376;-79
2022/03/18 15:00:04;;;;;;;24.63;18.27;;;14.10;94.80;;;;;;5115432;27;89068;-79
2022/03/18 15:02:31;;;;;;;26.63;18.17;;;14.30;95.40;;;;;;5116812;27;89184;-78
2022/03/18 15:04:59;;;;;;;25.13;17.98;;;14.20;95.10;;;;;;5107017;27;91018;-79
2022/03/18 15:07:26;;;;;;;23.58;18.25;;;14.30;95.20;;;;;;5100156;27;91305;-79
2022/03/18 15:09:52;;;;;;;23.10;16.90;;;14.30;94.40;;;;;;5095706;27;89009;-79
2022/03/18 15:12:21;;;;;;;22.77;16.40;;;14.30;95.00;;;;;;5101210;27;89063;-79
2022/03/18 15:14:47;;;;;;;21.27;15.50;;;14.10;95.80;;;;;;5094470;27;90740;-78
2022/03/18 15:17:14;;;;;;;19.00;14.80;;;13.90;95.80;;;;;;5098421;27;89380;-79
2022/03/18 15:19:40;;;;;;;19.95;13.50;;;14.10;96.40;;;;;;5113138;27;89066;-79
2022/03/18 15:22:06;;;;;;;22.90;14.80;;;14.20;95.70;;;;;;5115150;27;89219;-79
2022/03/18 15:24:34;;;;;;;20.33;14.20;;;14.10;96.10;;;;;;5106015;27;90867;-79
2022/03/18 15:27:00;;;;;;;19.00;13.40;;;14.40;96.40;;;;;;5093453;27;90745;-78
2022/03/18 15:29:26;;;;;;;18.40;13.73;;;14.40;95.60;;;;;;5085365;27;89034;-80
2022/03/18 15:31:51;;;;;;;20.38;14.90;;;14.50;95.30;;;;;;5105458;27;88813;-79
2022/03/18 15:34:17;;;;;;;20.00;14.68;;;14.50;95.20;;;;;;5105604;27;93864;-80
2022/03/18 15:36:42;;;;;;;18.70;14.02;;;13.90;95.50;;;;;;5103257;27;89267;-79
2022/03/18 15:39:08;;;;;;;22.42;14.13;;;13.70;96.60;;;;;;5104607;27;89160;-80
2022/03/18 15:41:34;;;;;;;21.50;15.15;;;14.00;96.00;;;;;;5108302;27;89279;-80
2022/03/18 15:44:13;;;;;;;21.13;14.48;;;13.80;96.20;;;;;;5103669;27;92450;-79
2022/03/18 15:46:43;;;;;;;22.42;14.77;;;13.60;96.60;;;;;;5103847;27;88962;-78
2022/03/18 15:49:09;;;;;;;22.23;15.52;;;13.80;96.40;;;;;;5105876;27;88945;-79
2022/03/18 15:51:38;;;;;;;22.77;15.88;;;13.40;96.70;;;;;;5108064;27;89089;-80
2022/03/18 15:54:03;;;;;;;19.73;15.32;;;13.40;96.70;;;;;;5112920;27;88977;-81
2022/03/18 15:56:31;;;;;;;21.60;15.38;;;13.40;96.90;;;;;;5110440;27;89201;-81
2022/03/18 15:58:56;;;;;;;23.70;16.35;;;13.80;96.80;;;;;;5108099;27;90135;-80
2022/03/18 16:01:22;;;;;;;22.75;16.05;;;14.00;96.40;;;;;;5114297;27;88925;-80
2022/03/18 16:03:47;;;;;;;21.67;16.50;;;14.20;96.40;;;;;;5114764;27;92184;-80
2022/03/18 16:06:32;;;;;;;25.15;17.17;;;14.20;95.90;;;;;;5106084;27;89477;-80
2022/03/18 16:09:06;;;;;;;23.70;17.02;;;13.90;96.20;;;;;;5104791;27;88972;-80
2022/03/18 16:11:32;;;;;;;22.88;16.83;;;14.00;96.50;;;;;;5102710;27;89137;-80
2022/03/18 16:13:58;;;;;;;24.65;17.65;;;13.70;96.10;;;;;;5095899;27;92269;-81
2022/03/18 16:16:25;;;;;;;24.90;17.90;;;13.30;96.50;;;;;;5101961;27;90873;-78
2022/03/18 16:18:55;;;;;;;26.92;18.75;;;13.20;96.80;;;;;;5105187;27;88976;-81
2022/03/18 16:21:25;;;;;;;25.08;19.20;;;12.80;97.40;;;;;;5098342;27;89273;-78
2022/03/18 16:23:52;;;;;;;29.73;20.30;;;12.50;97.80;;;;;;5099967;27;91094;-78
2022/03/18 16:26:25;;;;;;;29.77;20.92;;;12.40;98.10;;;;;;5098925;27;91467;-77
2022/03/18 16:28:52;;;;;;;29.42;20.75;;;12.30;98.20;;;;;;5095516;27;89323;-77
2022/03/18 16:31:18;;;;;;;32.53;21.20;;;12.20;98.10;;;;;;5101482;27;89159;-78
2022/03/18 16:33:49;;;;;;;27.95;19.85;;;12.00;98.10;;;;;;5103543;27;90208;-76
2022/03/18 16:36:18;;;;;;;32.90;20.73;;;11.80;98.40;;;;;;5101180;27;92899;-77
2022/03/18 16:38:44;;;;;;;29.27;21.13;;;11.70;98.60;;;;;;5099937;27;89112;-77
2022/03/18 16:41:11;;;;;;;29.88;21.20;;;11.70;99.40;;;;;;5101991;27;88912;-78
2022/03/18 16:43:37;;;;;;;32.65;21.92;;;11.60;99.00;;;;;;5100901;27;91318;-77
2022/03/18 16:51:37;;;;;;;33.10;22.58;;;11.30;99.70;;;;;;5122723;27;88909;-76
2022/03/18 16:54:03;;;;;;;32.58;22.75;;;11.20;99.80;;;;;;5119739;27;92780;-76
2022/03/18 16:56:29;;;;;;;36.42;26.65;;;11.10;99.80;;;;;;5097009;27;89325;-78
2022/03/18 16:58:55;;;;;;;37.20;24.55;;;11.00;99.90;;;;;;5078825;27;89064;-78
2022/03/18 17:01:45;;;;;;;35.25;24.75;;;10.80;99.90;;;;;;5101274;27;88981;-77
2022/03/18 17:04:10;;;;;;;37.75;27.60;;;10.70;99.90;;;;;;5117038;27;89013;-75
2022/03/18 17:06:39;;;;;;;34.35;23.38;;;10.60;99.90;;;;;;5100698;27;91538;-77
2022/03/18 17:09:05;;;;;;;35.50;23.55;;;10.50;99.90;;;;;;5095828;27;89006;-77
2022/03/18 17:11:37;;;;;;;32.85;22.63;;;10.40;99.90;;;;;;5099469;27;89362;-78
2022/03/18 17:14:03;;;;;;;37.72;23.52;;;10.40;99.90;;;;;;5063660;22;91271;-81
2022/03/18 17:16:29;;;;;;;34.45;24.00;;;10.30;99.90;;;;;;4998417;28;92391;-81
2022/03/18 17:18:54;;;;;;;34.17;22.58;;;10.20;99.90;;;;;;4999233;28;89026;-79
2022/03/18 17:21:20;;;;;;;36.53;24.02;;;10.10;99.90;;;;;;5000604;28;88786;-81
2022/03/18 17:23:46;;;;;;;38.17;23.58;;;10.00;99.90;;;;;;4999251;28;92049;-81
2022/03/18 17:26:12;;;;;;;35.80;23.48;;;9.90;99.90;;;;;;5001481;28;90843;-81
2022/03/18 17:28:38;;;;;;;39.30;24.52;;;9.90;99.90;;;;;;4999833;28;89196;-82
2022/03/18 17:31:04;;;;;;;39.63;25.17;;;9.80;99.90;;;;;;5001818;28;89369;-82
2022/03/18 17:33:31;;;;;;;37.22;23.38;;;9.70;99.90;;;;;;5005335;28;89815;-78
2022/03/18 17:35:56;;;;;;;41.95;25.17;;;9.60;99.90;;;;;;4999141;28;92365;-75
2022/03/18 17:38:24;;;;;;;42.30;24.60;;;9.50;99.90;;;;;;5002825;28;88954;-74
2022/03/18 17:40:50;;;;;;;40.00;24.98;;;9.50;99.90;;;;;;4998870;28;89092;-73
2022/03/18 17:43:16;;;;;;;43.15;25.27;;;9.40;99.90;;;;;;4998326;28;89149;-74
2022/03/18 17:45:41;;;;;;;45.38;25.75;;;9.30;99.90;;;;;;4997618;28;88864;-74
2022/03/18 17:48:07;;;;;;;42.65;24.55;;;9.30;99.90;;;;;;4998849;28;88911;-74
2022/03/18 17:50:33;;;;;;;42.33;25.55;;;9.30;99.90;;;;;;4998116;28;88853;-74
2022/03/18 17:52:58;;;;;;;44.53;25.58;;;9.20;99.90;;;;;;4996711;28;92637;-73
2022/03/18 17:55:24;;;;;;;41.72;25.77;;;9.20;99.90;;;;;;4998133;28;89316;-73
2022/03/18 17:57:49;;;;;;;45.80;26.25;;;9.10;99.90;;;;;;4997738;28;89040;-73
2022/03/18 18:00:15;;;;;;;43.50;25.17;;;9.10;99.90;;;;;;4997005;28;89124;-74
2022/03/18 18:02:41;;;;;;;45.17;25.98;;;9.00;99.90;;;;;;4997728;28;89845;-73
2022/03/18 18:05:08;;;;;;;47.90;26.40;;;8.90;99.90;;;;;;4997732;28;89758;-74
2022/03/18 18:07:34;;;;;;;42.22;25.98;;;8.80;99.90;;;;;;4997842;28;89065;-75
2022/03/18 18:09:59;;;;;;;46.08;26.73;;;8.80;99.90;;;;;;4998335;28;89386;-74
2022/03/18 18:12:25;;;;;;;45.45;27.70;;;8.80;99.90;;;;;;5003270;28;90049;-74
2022/03/18 18:14:51;;;;;;;51.70;30.52;;;8.70;99.90;;;;;;4997903;28;90671;-75
2022/03/18 18:17:16;;;;;;;46.15;27.05;;;8.60;99.90;;;;;;4997262;28;88984;-76
2022/03/18 18:22:27;;;;;;;45.72;28.63;;;8.60;99.90;;;;;;4999696;28;89500;-78
2022/03/18 18:24:53;;;;;;;46.10;27.63;;;8.60;99.90;;;;;;4994620;28;88884;-80
2022/03/18 18:27:20;;;;;;;48.30;28.00;;;8.50;99.90;;;;;;4995371;28;89159;-80
2022/03/18 18:29:47;;;;;;;48.17;28.20;;;8.40;99.90;;;;;;4996528;28;89801;-81
2022/03/18 18:32:13;;;;;;;48.75;27.95;;;8.30;99.90;;;;;;4996353;28;92901;-78
2022/03/18 18:34:39;;;;;;;50.45;29.35;;;8.30;99.90;;;;;;5010011;28;89585;-81
2022/03/18 18:37:04;;;;;;;50.50;28.88;;;8.30;99.90;;;;;;5001110;28;89045;-80
2022/03/18 18:39:31;;;;;;;51.22;28.98;;;8.20;99.90;;;;;;4995745;28;89313;-80
2022/03/18 18:41:58;;;;;;;51.10;30.83;;;8.20;99.90;;;;;;4997321;28;89077;-80